Time;durP1;ratioP1;P1;durP2;ratioP2;P2;SDS_P1;SDS_P2;PMS_P1;PMS_P2;Temp;Humidity;BMP_temperature;BMP_pressure;BME280_temperature;BME280_humidity;BME280_pressure;Samples;Min_cycle;Max_cycle;Signal;HPM_P1;HPM_P2
2022/10/13 00:00:47;;;;;;;;;;;;;;;;;;5027500;28;19970;-56
2022/10/13 00:03:13;;;;;;;;;;;;;;;;;;5027628;28;20433;-56
2022/10/13 00:05:39;;;;;;;;;;;;;;;;;;5027183;28;19956;-56
2022/10/13 00:08:05;;;;;;;;;;;;;;;;;;5027933;28;19921;-56
2022/10/13 00:10:30;;;;;;;;;;;;;;;;;;5027360;28;20272;-56
2022/10/13 00:12:56;;;;;;;;;;;;;;;;;;5027467;28;20372;-56
2022/10/13 00:15:24;;;;;;;;;;;;;;;;;;5027258;28;19921;-56
2022/10/13 00:17:50;;;;;;;;;;;;;;;;;;5027909;28;19920;-56
2022/10/13 00:20:16;;;;;;;;;;;;;;;;;;5026946;28;19929;-56
2022/10/13 00:22:42;;;;;;;;;;;;;;;;;;5027500;28;20355;-56
2022/10/13 00:25:08;;;;;;;;;;;;;;;;;;5027587;28;19983;-56
2022/10/13 00:27:34;;;;;;;;;;;;;;;;;;5026468;28;19921;-56
2022/10/13 00:30:00;;;;;;;;;;;;;;;;;;5027807;28;19920;-56
2022/10/13 00:32:26;;;;;;;;;;;;;;;;;;5027377;28;19928;-56
2022/10/13 00:34:51;;;;;;;;;;;;;;;;;;5025771;28;19925;-56
2022/10/13 00:37:17;;;;;;;;;;;;;;;;;;5027157;28;20005;-56
2022/10/13 00:39:43;;;;;;;;;;;;;;;;;;5025424;28;20300;-56
2022/10/13 00:42:09;;;;;;;;;;;;;;;;;;5027262;28;19921;-56
2022/10/13 00:44:35;;;;;;;;;;;;;;;;;;5026842;28;19921;-56
2022/10/13 00:47:01;;;;;;;;;;;;;;;;;;5027017;28;19925;-56
2022/10/13 00:49:27;;;;;;;;;;;;;;;;;;5027524;28;19983;-56
2022/10/13 00:51:53;;;;;;;;;;;;;;;;;;5027503;28;19927;-56
2022/10/13 00:54:19;;;;;;;;;;;;;;;;;;5026063;28;19932;-56
2022/10/13 00:56:44;;;;;;;;;;;;;;;;;;5027101;28;19924;-56
2022/10/13 00:59:10;;;;;;;;;;;;;;;;;;5027120;28;19932;-56
2022/10/13 01:01:36;;;;;;;;;;;;;;;;;;5026035;28;19929;-56
2022/10/13 01:04:02;;;;;;;;;;;;;;;;;;5027082;28;19921;-56
2022/10/13 01:06:28;;;;;;;;;;;;;;;;;;5027087;28;20055;-56
2022/10/13 01:08:54;;;;;;;;;;;;;;;;;;5026929;28;20286;-56
2022/10/13 01:11:21;;;;;;;;;;;;;;;;;;5026605;28;19921;-56
2022/10/13 01:13:47;;;;;;;;;;;;;;;;;;5031040;28;19932;-56
2022/10/13 01:16:13;;;;;;;;;;;;;;;;;;5030179;28;19921;-56
2022/10/13 01:18:39;;;;;;;;;;;;;;;;;;5029800;28;19921;-56
2022/10/13 01:21:05;;;;;;;;;;;;;;;;;;5031016;28;19925;-56
2022/10/13 01:23:31;;;;;;;;;;;;;;;;;;5029791;28;20019;-56
2022/10/13 01:25:57;;;;;;;;;;;;;;;;;;5031252;28;19987;-56
2022/10/13 01:28:23;;;;;;;;;;;;;;;;;;5030532;28;19920;-56
2022/10/13 01:30:49;;;;;;;;;;;;;;;;;;5030323;28;19924;-56
2022/10/13 01:33:15;;;;;;;;;;;;;;;;;;5030419;28;19920;-57
2022/10/13 01:35:40;;;;;;;;;;;;;;;;;;5030638;28;20030;-56
2022/10/13 01:38:06;;;;;;;;;;;;;;;;;;5029972;28;19928;-56
2022/10/13 01:40:32;;;;;;;;;;;;;;;;;;5030164;28;19920;-57
2022/10/13 01:42:58;;;;;;;;;;;;;;;;;;5030246;28;19928;-56
2022/10/13 01:45:24;;;;;;;;;;;;;;;;;;5030790;28;19967;-56
2022/10/13 01:47:50;;;;;;;;;;;;;;;;;;5030581;28;19921;-56
2022/10/13 01:50:16;;;;;;;;;;;;;;;;;;5029527;28;20390;-56
2022/10/13 01:52:42;;;;;;;;;;;;;;;;;;5029305;28;19921;-56
2022/10/13 01:55:08;;;;;;;;;;;;;;;;;;5030060;28;19995;-56
2022/10/13 01:57:34;;;;;;;;;;;;;;;;;;5029432;28;19928;-56
2022/10/13 02:00:00;;;;;;;;;;;;;;;;;;5030381;28;19921;-56
2022/10/13 02:02:25;;;;;;;;;;;;;;;;;;5030261;28;20022;-55
2022/10/13 02:04:52;;;;;;;;;;;;;;;;;;5029511;28;19925;-56
2022/10/13 02:07:18;;;;;;;;;;;;;;;;;;5029779;28;19921;-56
2022/10/13 02:09:44;;;;;;;;;;;;;;;;;;5029971;28;19962;-56
2022/10/13 02:12:10;;;;;;;;;;;;;;;;;;5029415;28;20400;-56
2022/10/13 02:14:36;;;;;;;;;;;;;;;;;;5029578;28;19929;-56
2022/10/13 02:17:02;;;;;;;;;;;;;;;;;;5030415;28;20007;-56
2022/10/13 02:19:28;;;;;;;;;;;;;;;;;;5029366;28;19948;-56
2022/10/13 02:21:54;;;;;;;;;;;;;;;;;;5030130;28;19924;-56
2022/10/13 02:24:20;;;;;;;;;;;;;;;;;;5028972;28;19921;-56
2022/10/13 02:26:46;;;;;;;;;;;;;;;;;;5029322;28;19925;-56
2022/10/13 02:29:12;;;;;;;;;;;;;;;;;;5029547;28;20435;-56
2022/10/13 02:31:38;;;;;;;;;;;;;;;;;;5029871;28;19917;-57
2022/10/13 02:34:04;;;;;;;;;;;;;;;;;;5028737;28;19921;-56
2022/10/13 02:36:30;;;;;;;;;;;;;;;;;;5029236;28;19921;-56
2022/10/13 02:38:56;;;;;;;;;;;;;;;;;;5029985;28;19956;-56
2022/10/13 02:41:22;;;;;;;;;;;;;;;;;;5028482;28;19995;-56
2022/10/13 02:43:47;;;;;;;;;;;;;;;;;;5029758;28;19927;-56
2022/10/13 02:46:13;;;;;;;;;;;;;;;;;;5028426;28;19924;-56
2022/10/13 02:48:39;;;;;;;;;;;;;;;;;;5029399;28;20314;-56
2022/10/13 02:51:05;;;;;;;;;;;;;;;;;;5029335;28;19928;-56
2022/10/13 02:53:31;;;;;;;;;;;;;;;;;;5028027;28;19924;-56
2022/10/13 02:55:57;;;;;;;;;;;;;;;;;;5030198;28;19928;-56
2022/10/13 02:58:23;;;;;;;;;;;;;;;;;;5028878;28;19928;-56
2022/10/13 03:00:49;;;;;;;;;;;;;;;;;;5028241;28;19972;-56
2022/10/13 03:03:14;;;;;;;;;;;;;;;;;;5028889;28;19927;-56
2022/10/13 03:05:40;;;;;;;;;;;;;;;;;;5028960;28;19921;-56
2022/10/13 03:08:06;;;;;;;;;;;;;;;;;;5028116;28;20311;-56
2022/10/13 03:10:32;;;;;;;;;;;;;;;;;;5028815;28;19960;-56
2022/10/13 03:12:58;;;;;;;;;;;;;;;;;;5029439;28;20403;-56
2022/10/13 03:15:24;;;;;;;;;;;;;;;;;;5028467;28;20020;-56
2022/10/13 03:17:50;;;;;;;;;;;;;;;;;;5028870;28;19979;-56
2022/10/13 03:20:16;;;;;;;;;;;;;;;;;;5028493;28;20039;-56
2022/10/13 03:22:42;;;;;;;;;;;;;;;;;;5027846;28;19921;-57
2022/10/13 03:25:08;;;;;;;;;;;;;;;;;;5028951;28;19975;-56
2022/10/13 03:27:34;;;;;;;;;;;;;;;;;;5028618;28;19960;-57
2022/10/13 03:30:00;;;;;;;;;;;;;;;;;;5027930;28;19921;-56
2022/10/13 03:32:26;;;;;;;;;;;;;;;;;;5028581;28;19936;-56
2022/10/13 03:34:52;;;;;;;;;;;;;;;;;;5027696;28;19964;-56
2022/10/13 03:37:18;;;;;;;;;;;;;;;;;;5027451;28;20315;-56
2022/10/13 03:39:44;;;;;;;;;;;;;;;;;;5028511;28;19921;-56
2022/10/13 03:42:10;;;;;;;;;;;;;;;;;;5028595;28;19921;-56
2022/10/13 03:44:36;;;;;;;;;;;;;;;;;;5027234;28;19928;-56
2022/10/13 03:47:02;;;;;;;;;;;;;;;;;;5028306;28;19958;-56
2022/10/13 03:49:28;;;;;;;;;;;;;;;;;;5027826;28;19963;-56
2022/10/13 03:51:54;;;;;;;;;;;;;;;;;;5028573;28;19921;-56
2022/10/13 03:54:20;;;;;;;;;;;;;;;;;;5028085;28;20016;-56
2022/10/13 03:56:46;;;;;;;;;;;;;;;;;;5027332;28;19929;-56
2022/10/13 03:59:12;;;;;;;;;;;;;;;;;;5027956;28;19986;-56
2022/10/13 04:01:38;;;;;;;;;;;;;;;;;;5027851;28;20395;-56
2022/10/13 04:04:04;;;;;;;;;;;;;;;;;;5027092;28;19928;-56
2022/10/13 04:06:30;;;;;;;;;;;;;;;;;;5027068;28;19972;-56
2022/10/13 04:08:56;;;;;;;;;;;;;;;;;;5028014;28;19968;-56
2022/10/13 04:11:22;;;;;;;;;;;;;;;;;;5026933;28;19952;-56
2022/10/13 04:13:48;;;;;;;;;;;;;;;;;;5027909;28;20695;-56
2022/10/13 04:16:14;;;;;;;;;;;;;;;;;;5027780;28;19921;-56
2022/10/13 04:18:40;;;;;;;;;;;;;;;;;;5027084;28;19920;-56
2022/10/13 04:21:06;;;;;;;;;;;;;;;;;;5027416;28;19925;-56
2022/10/13 04:23:31;;;;;;;;;;;;;;;;;;5027377;28;20071;-56
2022/10/13 04:25:57;;;;;;;;;;;;;;;;;;5027438;28;19921;-56
2022/10/13 04:28:23;;;;;;;;;;;;;;;;;;5027393;28;20304;-55
2022/10/13 04:30:49;;;;;;;;;;;;;;;;;;5027606;28;19924;-56
2022/10/13 04:33:15;;;;;;;;;;;;;;;;;;5026462;28;19921;-56
2022/10/13 04:35:41;;;;;;;;;;;;;;;;;;5027187;28;19948;-56
2022/10/13 04:38:07;;;;;;;;;;;;;;;;;;5027537;28;20026;-56
2022/10/13 04:40:33;;;;;;;;;;;;;;;;;;5026332;28;19944;-56
2022/10/13 04:42:59;;;;;;;;;;;;;;;;;;5027405;28;19921;-56
2022/10/13 04:45:25;;;;;;;;;;;;;;;;;;5027487;28;20376;-56
2022/10/13 04:47:51;;;;;;;;;;;;;;;;;;5026465;28;20360;-56
2022/10/13 04:50:17;;;;;;;;;;;;;;;;;;5026558;28;19925;-56
2022/10/13 04:52:43;;;;;;;;;;;;;;;;;;5026779;28;19925;-56
2022/10/13 04:55:09;;;;;;;;;;;;;;;;;;5027220;28;19928;-56
2022/10/13 04:57:34;;;;;;;;;;;;;;;;;;5026751;28;19929;-56
2022/10/13 05:00:00;;;;;;;;;;;;;;;;;;5026543;28;19928;-56
2022/10/13 05:02:26;;;;;;;;;;;;;;;;;;5027314;28;20477;-56
2022/10/13 05:04:52;;;;;;;;;;;;;;;;;;5027014;28;19971;-56
2022/10/13 05:07:18;;;;;;;;;;;;;;;;;;5026104;28;20346;-56
2022/10/13 05:09:44;;;;;;;;;;;;;;;;;;5026969;28;19947;-56
2022/10/13 05:12:10;;;;;;;;;;;;;;;;;;5027008;28;19925;-56
2022/10/13 05:14:36;;;;;;;;;;;;;;;;;;5024884;28;20012;-57
2022/10/13 05:17:02;;;;;;;;;;;;;;;;;;5027029;28;19947;-56
2022/10/13 05:19:28;;;;;;;;;;;;;;;;;;5027391;28;19921;-56
2022/10/13 05:21:54;;;;;;;;;;;;;;;;;;5026135;28;20360;-56
2022/10/13 05:24:29;;;;;;;;;;;;;;;;;;5026712;28;19978;-56
2022/10/13 05:26:55;;;;;;;;;;;;;;;;;;5027527;28;19925;-56
2022/10/13 05:29:21;;;;;;;;;;;;;;;;;;5025800;28;19927;-56
2022/10/13 05:31:47;;;;;;;;;;;;;;;;;;5026823;28;19925;-56
2022/10/13 05:34:13;;;;;;;;;;;;;;;;;;5026698;28;20283;-56
2022/10/13 05:36:39;;;;;;;;;;;;;;;;;;5026115;28;19924;-56
2022/10/13 05:39:06;;;;;;;;;;;;;;;;;;5026787;28;19917;-56
2022/10/13 05:41:32;;;;;;;;;;;;;;;;;;5026440;28;19924;-56
2022/10/13 05:43:58;;;;;;;;;;;;;;;;;;5026630;28;19952;-56
2022/10/13 05:46:24;;;;;;;;;;;;;;;;;;5025284;28;19920;-56
2022/10/13 05:48:50;;;;;;;;;;;;;;;;;;5026895;28;19925;-56
2022/10/13 05:51:16;;;;;;;;;;;;;;;;;;5025794;28;19925;-56
2022/10/13 05:53:42;;;;;;;;;;;;;;;;;;5026517;28;20309;-55
2022/10/13 05:56:07;;;;;;;;;;;;;;;;;;5025935;28;19931;-56
2022/10/13 05:58:33;;;;;;;;;;;;;;;;;;5027787;28;20372;-56
2022/10/13 06:00:59;;;;;;;;;;;;;;;;;;5029990;28;19921;-56
2022/10/13 06:03:25;;;;;;;;;;;;;;;;;;5029663;28;20430;-56
2022/10/13 06:05:51;;;;;;;;;;;;;;;;;;5030201;28;19925;-56
2022/10/13 06:08:17;;;;;;;;;;;;;;;;;;5029784;28;20098;-56
2022/10/13 06:10:43;;;;;;;;;;;;;;;;;;5029534;28;20372;-56
2022/10/13 06:13:09;;;;;;;;;;;;;;;;;;5030090;28;19921;-57
2022/10/13 06:15:35;;;;;;;;;;;;;;;;;;5029216;28;19951;-56
2022/10/13 06:18:01;;;;;;;;;;;;;;;;;;5029047;28;19928;-56
2022/10/13 06:20:27;;;;;;;;;;;;;;;;;;5029867;28;20330;-56
2022/10/13 06:22:53;;;;;;;;;;;;;;;;;;5030083;28;19927;-56
2022/10/13 06:25:18;;;;;;;;;;;;;;;;;;5028797;28;20313;-56
2022/10/13 06:27:44;;;;;;;;;;;;;;;;;;5029783;28;19927;-56
2022/10/13 06:30:10;;;;;;;;;;;;;;;;;;5029471;28;19920;-56
2022/10/13 06:32:36;;;;;;;;;;;;;;;;;;5028731;28;19927;-56
2022/10/13 06:35:02;;;;;;;;;;;;;;;;;;5030040;28;19972;-57
2022/10/13 06:37:28;;;;;;;;;;;;;;;;;;5029912;28;20414;-56
2022/10/13 06:39:54;;;;;;;;;;;;;;;;;;5029217;28;19983;-56
2022/10/13 06:42:20;;;;;;;;;;;;;;;;;;5029116;28;19921;-57
2022/10/13 06:44:46;;;;;;;;;;;;;;;;;;5029169;28;20024;-56
2022/10/13 06:47:12;;;;;;;;;;;;;;;;;;5028875;28;19921;-56
2022/10/13 06:49:38;;;;;;;;;;;;;;;;;;5029396;28;19925;-57
2022/10/13 06:52:03;;;;;;;;;;;;;;;;;;5029221;28;19928;-57
2022/10/13 06:54:29;;;;;;;;;;;;;;;;;;5028336;28;19925;-56
2022/10/13 06:56:55;;;;;;;;;;;;;;;;;;5029740;28;19968;-56
2022/10/13 06:59:21;;;;;;;;;;;;;;;;;;5028478;28;20338;-56
2022/10/13 07:01:47;;;;;;;;;;;;;;;;;;5028802;28;19928;-56
2022/10/13 07:04:13;;;;;;;;;;;;;;;;;;5028889;28;20035;-56
2022/10/13 07:06:39;;;;;;;;;;;;;;;;;;5028410;28;19921;-56
2022/10/13 07:09:05;;;;;;;;;;;;;;;;;;5028989;28;19921;-57
2022/10/13 07:11:31;;;;;;;;;;;;;;;;;;5028365;28;19921;-56
2022/10/13 07:13:57;;;;;;;;;;;;;;;;;;5028469;28;19936;-56
2022/10/13 07:16:23;;;;;;;;;;;;;;;;;;5028790;28;19964;-55
2022/10/13 07:18:49;;;;;;;;;;;;;;;;;;5029000;28;20818;-56
2022/10/13 07:21:15;;;;;;;;;;;;;;;;;;5027670;28;19921;-56
2022/10/13 07:23:41;;;;;;;;;;;;;;;;;;5028586;28;19921;-56
2022/10/13 07:26:07;;;;;;;;;;;;;;;;;;5028646;28;19947;-56
2022/10/13 07:28:33;;;;;;;;;;;;;;;;;;5027481;28;20387;-56
2022/10/13 07:30:59;;;;;;;;;;;;;;;;;;5028998;28;20280;-56
2022/10/13 07:33:25;;;;;;;;;;;;;;;;;;5028670;28;19921;-56
2022/10/13 07:35:51;;;;;;;;;;;;;;;;;;5027729;28;19921;-56
2022/10/13 07:38:17;;;;;;;;;;;;;;;;;;5028049;28;19924;-56
2022/10/13 07:40:43;;;;;;;8.90;8.00;;;;;;;;;;5027630;28;20528;-56
2022/10/13 07:43:09;;;;;;;9.80;8.65;;;;;;;;;;5026942;28;20049;-56
2022/10/13 07:45:35;;;;;;;11.25;10.05;;;;;;;;;;5027452;28;20116;-56
2022/10/13 07:48:01;;;;;;;14.10;11.40;;;;;;;;;;5027950;28;20164;-56
2022/10/13 07:50:27;;;;;;;;;;;;;;;;;;5027647;28;20311;-56
2022/10/13 07:52:53;;;;;;;;;;;;;;;;;;5028281;28;19925;-56
2022/10/13 07:55:19;;;;;;;;;;;;;;;;;;5027582;28;19932;-57
2022/10/13 07:57:45;;;;;;;;;;;;;;;;;;5027198;28;19931;-56
2022/10/13 08:00:11;;;;;;;;;;;;;;;;;;5028283;28;19928;-56
2022/10/13 08:02:36;;;;;;;;;;;;;;;;;;5025332;28;20435;-56
2022/10/13 08:05:02;;;;;;;;;;;;;;;;;;5028064;28;19921;-56
2022/10/13 08:07:28;;;;;;;;;;;;;;;;;;5028129;28;20568;-56
2022/10/13 08:09:55;;;;;;;;;;;;;;;;;;5027714;28;20075;-56
2022/10/13 08:12:21;;;;;;;;;;;;;;;;;;5027388;28;20439;-56
2022/10/13 08:14:47;;;;;;;;;;;;;;;;;;5028060;28;19925;-56
2022/10/13 08:17:13;;;;;;;;;;;;;;;;;;5026507;28;19927;-56
2022/10/13 08:19:39;;;;;;;;;;;;;;;;;;5026828;28;20086;-56
2022/10/13 08:22:05;;;;;;;;;;;;;;;;;;5026789;28;19967;-56
2022/10/13 08:24:31;;;;;;;;;;;;;;;;;;5025769;28;19928;-56
2022/10/13 08:26:57;;;;;;;;;;;;;;;;;;5027321;28;19925;-56
2022/10/13 08:29:23;;;;;;;;;;;;;;;;;;5026336;28;19968;-56
2022/10/13 08:31:49;;;;;;;;;;;;;;;;;;5024815;28;20552;-57
2022/10/13 08:34:14;;;;;;;;;;;;;;;;;;5026579;28;20003;-56
2022/10/13 08:36:41;;;;;;;;;;;;;;;;;;5026763;28;20484;-56
2022/10/13 08:39:07;;;;;;;;;;;;;;;;;;5026087;28;19925;-56
2022/10/13 08:41:33;;;;;;;;;;;;;;;;;;5026269;28;19924;-56
2022/10/13 08:43:59;;;;;;;;;;;;;;;;;;5027137;28;20675;-57
2022/10/13 08:46:25;;;;;;;;;;;;;;;;;;5025921;28;19961;-56
2022/10/13 08:48:51;;;;;;;;;;;;;;;;;;5026469;28;19944;-56
2022/10/13 08:51:17;;;;;;;;;;;;;;;;;;5026340;28;20235;-56
2022/10/13 08:53:43;;;;;;;;;;;;;;;;;;5025816;28;19928;-57
2022/10/13 08:56:09;;;;;;;;;;;;;;;;;;5026321;28;19971;-56
2022/10/13 08:58:35;;;;;;;;;;;;;;;;;;5026385;28;19986;-56
2022/10/13 09:01:01;;;;;;;;;;;;;;;;;;5025659;28;19925;-56
2022/10/13 09:03:27;;;;;;;;;;;;;;;;;;5026692;28;20292;-57
2022/10/13 09:05:53;;;;;;;;;;;;;;;;;;5025598;28;20402;-57
2022/10/13 09:08:19;;;;;;;;;;;;;;;;;;5026343;28;19925;-57
2022/10/13 09:10:45;;;;;;;;;;;;;;;;;;5026429;28;19932;-57
2022/10/13 09:13:11;;;;;;;;;;;;;;;;;;5025664;28;19921;-57
2022/10/13 09:15:37;;;;;;;;;;;;;;;;;;5026123;28;20403;-57
2022/10/13 09:18:03;;;;;;;;;;;;;;;;;;5026705;28;19921;-57
2022/10/13 09:20:28;;;;;;;;;;;;;;;;;;5025656;28;19921;-57
2022/10/13 09:22:54;;;;;;;;;;;;;;;;;;5026652;28;20002;-58
2022/10/13 09:25:20;;;;;;;;;;;;;;;;;;5026038;28;19951;-58
2022/10/13 09:27:46;;;;;;;;;;;;;;;;;;5025423;28;19966;-56
2022/10/13 09:30:12;;;;;;;;;;;;;;;;;;5025816;28;19921;-57
2022/10/13 09:32:39;;;;;;;;;;;;;;;;;;5026136;28;19968;-58
2022/10/13 09:35:05;;;;;;;;;;;;;;;;;;5029361;28;19921;-58
2022/10/13 09:37:31;;;;;;;;;;;;;;;;;;5029915;28;19924;-57
2022/10/13 09:39:57;;;;;;;;;;;;;;;;;;5030079;28;20312;-58
2022/10/13 09:42:23;;;;;;;;;;;;;;;;;;5028962;28;19925;-57
2022/10/13 09:44:49;;;;;;;;;;;;;;;;;;5029894;28;19927;-58
2022/10/13 09:47:15;;;;;;;;;;;;;;;;;;5029438;28;20446;-57
2022/10/13 09:49:40;;;;;;;;;;;;;;;;;;5028999;28;19924;-57
2022/10/13 09:52:06;;;;;;;;;;;;;;;;;;5029621;28;19982;-57
2022/10/13 09:54:32;;;;;;;;;;;;;;;;;;5029703;28;20481;-58
2022/10/13 09:56:58;;;;;;;;;;;;;;;;;;5029393;28;19921;-58
2022/10/13 09:59:24;;;;;;;;;;;;;;;;;;5029442;28;19932;-58
2022/10/13 10:01:51;;;;;;;9.27;8.38;;;;;;;;;;5029158;28;20137;-58
2022/10/13 10:04:22;;;;;;;8.18;6.45;;;;;;;;;;5027822;28;20057;-58
2022/10/13 10:06:48;;;;;;;6.55;5.95;;;;;;;;;;5028782;28;20129;-57
2022/10/13 10:09:22;;;;;;;7.70;7.00;;;;;;;;;;5028125;28;20123;-57
2022/10/13 10:11:49;;;;;;;8.98;8.18;;;;;;;;;;5029010;28;20100;-57
2022/10/13 10:14:25;;;;;;;7.93;6.90;;;;;;;;;;5028665;28;20156;-57
2022/10/13 10:17:00;;;;;;;8.65;7.63;;;;;;;;;;5028111;28;20554;-57
2022/10/13 10:19:37;;;;;;;5.45;5.00;;;;;;;;;;5029062;28;20480;-57
2022/10/13 10:22:18;;;;;;;4.00;3.70;;;;;;;;;;5028809;28;20045;-57
2022/10/13 10:24:47;;;;;;;4.20;3.90;;;;;;;;;;5027942;28;20045;-57
2022/10/13 10:27:25;;;;;;;3.90;3.55;;;;;;;;;;5028553;28;20041;-57
2022/10/13 10:30:01;;;;;;;6.68;6.07;;;;;;;;;;5028400;28;20045;-57
2022/10/13 10:32:46;;;;;;;6.18;5.65;;;;;;;;;;5027894;28;20088;-57
2022/10/13 10:35:27;;;;;;;7.53;6.65;;;;;;;;;;5028152;28;20132;-57
2022/10/13 10:38:18;;;;;;;6.03;5.32;;;;;;;;;;5027756;28;20081;-57
2022/10/13 10:40:49;;;;;;;8.10;7.25;;;;;;;;;;5028387;28;20168;-57
2022/10/13 10:43:44;;;;;;;8.90;8.10;;;;;;;;;;5028125;28;20510;-57
2022/10/13 10:46:13;;;;;;;13.02;9.25;;;;;;;;;;5022606;28;20520;-57
2022/10/13 10:48:40;;;;;;;8.80;7.90;;;;;;;;;;5027866;28;20050;-57
2022/10/13 10:51:06;;;;;;;;;;;;;;;;;;5028648;28;20053;-57
2022/10/13 10:53:50;;;;;;;11.65;9.85;;;;;;;;;;5027432;28;19929;-56
2022/10/13 10:56:22;;;;;;;8.80;7.60;;;;;;;;;;5027877;28;20060;-57
2022/10/13 10:59:02;;;;;;;7.28;6.68;;;;;;;;;;5027089;28;20420;-57
2022/10/13 11:01:31;;;;;;;8.73;7.93;;;;;;;;;;5027950;28;20501;-57
2022/10/13 11:03:57;;;;;;;6.53;5.90;;;;;;;;;;5028451;28;20049;-57
2022/10/13 11:06:34;;;;;;;8.38;7.50;;;;;;;;;;5026882;28;20057;-58
2022/10/13 11:09:00;;;;;;;6.03;5.43;;;;;;;;;;5027702;28;20562;-57
2022/10/13 11:11:30;;;;;;;5.80;5.30;;;;;;;;;;5028430;28;20087;-57
2022/10/13 11:13:56;;;;;;;7.00;6.35;;;;;;;;;;5027581;28;20074;-57
2022/10/13 11:16:38;;;;;;;7.80;7.10;;;;;;;;;;5027431;28;20057;-57
2022/10/13 11:19:05;;;;;;;6.45;5.85;;;;;;;;;;5027560;28;20055;-57
2022/10/13 11:21:50;;;;;;;5.70;5.13;;;;;;;;;;5026443;28;20048;-58
2022/10/13 11:24:35;;;;;;;5.72;5.22;;;;;;;;;;5027479;28;20046;-58
2022/10/13 11:27:16;;;;;;;4.00;3.70;;;;;;;;;;5026710;28;20045;-57
2022/10/13 11:29:50;;;;;;;5.47;5.07;;;;;;;;;;5027396;28;20416;-57
2022/10/13 11:35:09;;;;;;;6.30;5.80;;;;;;;;;;5026951;28;20056;-57
2022/10/13 11:37:35;;;;;;;8.18;7.47;;;;;;;;;;5026869;28;20064;-57
2022/10/13 11:40:19;;;;;;;8.07;7.05;;;;;;;;;;5027239;28;20524;-57
2022/10/13 11:42:46;;;;;;;6.97;6.25;;;;;;;;;;5026243;28;20128;-57
2022/10/13 11:45:24;;;;;;;5.13;4.72;;;;;;;;;;5026927;28;20465;-57
2022/10/13 11:47:53;;;;;;;5.82;5.22;;;;;;;;;;5026425;28;20462;-58
2022/10/13 11:50:24;;;;;;;6.10;5.35;;;;;;;;;;5026896;28;20045;-58
2022/10/13 11:52:59;;;;;;;4.28;3.92;;;;;;;;;;5027074;28;20045;-58
2022/10/13 11:55:34;;;;;;;4.82;4.20;;;;;;;;;;5025610;28;20049;-58
2022/10/13 11:58:14;;;;;;;3.47;3.17;;;;;;;;;;5027345;28;20049;-58
2022/10/13 12:00:49;;;;;;;4.80;4.40;;;;;;;;;;5026752;28;20404;-58
2022/10/13 12:03:22;;;;;;;4.53;4.07;;;;;;;;;;5024483;28;20045;-58
2022/10/13 12:05:49;;;;;;;4.85;4.45;;;;;;;;;;5026728;28;20068;-58
2022/10/13 12:08:15;;;;;;;3.95;3.60;;;;;;;;;;5026500;28;20065;-58
2022/10/13 12:10:43;;;;;;;4.38;3.65;;;;;;;;;;5025837;28;20457;-58
2022/10/13 12:13:19;;;;;;;4.85;4.45;;;;;;;;;;5026674;28;20400;-58
2022/10/13 12:15:45;;;;;;;5.55;4.85;;;;;;;;;;5025896;28;20125;-58
2022/10/13 12:18:37;;;;;;;4.60;4.20;;;;;;;;;;5026381;28;20045;-58
2022/10/13 12:21:03;;;;;;;;;;;;;;;;;;5025808;28;20057;-58
2022/10/13 12:23:31;;;;;;;3.95;3.25;;;;;;;;;;5025509;28;20292;-58
2022/10/13 12:25:57;;;;;;;5.22;3.55;;;;;;;;;;5026529;28;20504;-58
2022/10/13 12:28:26;;;;;;;3.05;2.85;;;;;;;;;;5025744;28;20045;-58
2022/10/13 12:30:53;;;;;;;4.45;4.05;;;;;;;;;;5025451;28;20080;-58
2022/10/13 12:33:22;;;;;;;2.55;2.35;;;;;;;;;;5025975;28;20653;-58
2022/10/13 12:35:48;;;;;;;2.22;2.10;;;;;;;;;;5026305;28;20048;-58
2022/10/13 12:38:19;;;;;;;1.85;1.75;;;;;;;;;;5025193;28;20045;-58
2022/10/13 12:40:46;;;;;;;1.70;1.60;;;;;;;;;;5025911;28;20052;-58
2022/10/13 12:43:20;;;;;;;2.10;2.00;;;;;;;;;;5025984;28;20099;-59
2022/10/13 12:45:46;;;;;;;2.92;2.25;;;;;;;;;;5025364;28;20072;-58
2022/10/13 12:48:31;;;;;;;2.58;2.38;;;;;;;;;;5025892;28;20038;-59
2022/10/13 12:51:08;;;;;;;2.60;2.40;;;;;;;;;;5025957;28;20052;-58
2022/10/13 12:53:34;;;;;;;1.67;1.58;;;;;;;;;;5025384;28;20081;-58
2022/10/13 12:56:01;;;;;;;1.90;1.80;;;;;;;;;;5026138;28;20084;-58
2022/10/13 12:58:31;;;;;;;1.73;1.60;;;;;;;;;;5025616;28;20057;-58
2022/10/13 13:00:58;;;;;;;2.30;2.10;;;;;;;;;;5026364;28;20049;-57
2022/10/13 13:03:26;;;;;;;2.05;1.85;;;;;;;;;;5025866;28;20053;-58
2022/10/13 13:06:06;;;;;;;1.85;1.75;;;;;;;;;;5024843;28;20081;-58
2022/10/13 13:08:32;;;;;;;1.30;1.20;;;;;;;;;;5031512;28;20365;-58
2022/10/13 13:11:01;;;;;;;1.48;1.00;;;;;;;;;;5032853;28;20049;-58
2022/10/13 13:13:28;;;;;;;1.00;0.90;;;;;;;;;;5032113;28;20041;-58
2022/10/13 13:16:11;;;;;;;1.38;1.27;;;;;;;;;;5032694;28;20049;-58
2022/10/13 13:18:40;;;;;;;1.38;1.20;;;;;;;;;;5032185;28;21001;-57
2022/10/13 13:21:07;;;;;;;1.05;0.90;;;;;;;;;;5031629;28;20083;-58
2022/10/13 13:23:34;;;;;;;0.85;0.85;;;;;;;;;;5031904;28;20477;-58
2022/10/13 13:26:01;;;;;;;1.63;1.52;;;;;;;;;;5032279;28;20381;-57
2022/10/13 13:28:31;;;;;;;2.40;2.10;;;;;;;;;;5031780;28;20400;-58
2022/10/13 13:30:57;;;;;;;2.65;1.92;;;;;;;;;;5032667;28;20057;-58
2022/10/13 13:33:23;;;;;;;2.40;1.63;;;;;;;;;;5031387;28;20389;-58
2022/10/13 13:35:50;;;;;;;1.50;1.40;;;;;;;;;;5032245;28;20132;-57
2022/10/13 13:38:16;;;;;;;1.70;1.60;;;;;;;;;;5032413;28;20033;-58
2022/10/13 13:40:42;;;;;;;3.92;3.55;;;;;;;;;;5031452;28;20041;-58
2022/10/13 13:43:08;;;;;;;3.28;3.03;;;;;;;;;;5032127;28;20500;-58
2022/10/13 13:45:34;;;;;;;3.22;2.92;;;;;;;;;;5031547;28;20041;-58
2022/10/13 13:48:00;;;;;;;2.70;2.50;;;;;;;;;;5031619;28;20393;-58
2022/10/13 13:50:28;;;;;;;2.30;2.20;;;;;;;;;;5032381;28;20041;-58
2022/10/13 13:52:54;;;;;;;2.90;2.70;;;;;;;;;;5032528;28;20048;-58
2022/10/13 13:55:21;;;;;;;2.78;2.35;;;;;;;;;;5031030;28;20123;-58
2022/10/13 13:57:47;;;;;;;2.17;2.08;;;;;;;;;;5032029;28;20049;-58
2022/10/13 14:00:13;;;;;;;3.15;2.85;;;;;;;;;;5031683;28;20397;-58
2022/10/13 14:02:40;;;;;;;2.55;2.35;;;;;;;;;;5030900;28;20054;-58
2022/10/13 14:05:06;;;;;;;4.00;3.60;;;;;;;;;;5031926;28;20111;-58
2022/10/13 14:07:32;;;;;;;9.50;6.18;;;;;;;;;;5031651;28;20046;-58
2022/10/13 14:09:58;;;;;;;6.90;5.50;;;;;;;;;;5031697;28;20045;-58
2022/10/13 14:12:24;;;;;;;4.95;4.55;;;;;;;;;;5031736;28;20091;-58
2022/10/13 14:14:50;;;;;;;5.30;4.90;;;;;;;;;;5031862;28;20128;-58
2022/10/13 14:17:16;;;;;;;5.28;4.78;;;;;;;;;;5030932;28;20048;-58
2022/10/13 14:19:42;;;;;;;4.57;4.15;;;;;;;;;;5028774;28;20125;-58
2022/10/13 14:22:08;;;;;;;3.63;3.33;;;;;;;;;;5028846;28;20160;-58
2022/10/13 14:24:34;;;;;;;4.53;4.13;;;;;;;;;;5027691;28;20045;-57
2022/10/13 14:27:00;;;;;;;6.20;5.70;;;;;;;;;;5028591;28;20488;-58
2022/10/13 14:29:26;;;;;;;9.00;8.13;;;;;;;;;;5027872;28;20041;-58
2022/10/13 14:31:52;;;;;;;7.50;6.68;;;;;;;;;;5028730;28;20073;-59
2022/10/13 14:34:19;;;;;;;8.05;7.07;;;;;;;;;;5028458;28;20453;-58
2022/10/13 14:36:45;;;;;;;6.57;5.97;;;;;;;;;;5027773;28;20085;-58
2022/10/13 14:39:11;;;;;;;7.85;7.05;;;;;;;;;;5028422;28;20099;-58
2022/10/13 14:41:37;;;;;;;7.65;6.55;;;;;;;;;;5027072;28;20462;-58
2022/10/13 14:44:04;;;;;;;7.80;7.00;;;;;;;;;;5027604;28;20084;-58
2022/10/13 14:46:30;;;;;;;6.03;5.43;;;;;;;;;;5028067;28;20056;-58
2022/10/13 14:48:59;;;;;;;5.28;4.88;;;;;;;;;;5028668;28;20124;-58
2022/10/13 14:51:25;;;;;;;4.57;4.00;;;;;;;;;;5027593;28;20053;-58
2022/10/13 14:53:51;;;;;;;5.15;4.65;;;;;;;;;;5028063;28;20041;-58
2022/10/13 14:56:21;;;;;;;6.57;5.97;;;;;;;;;;5028391;28;20085;-58
2022/10/13 14:58:48;;;;;;;6.00;4.20;;;;;;;;;;5027552;28;20049;-58
2022/10/13 15:01:14;;;;;;;4.45;4.15;;;;;;;;;;5027232;28;20504;-58
2022/10/13 15:03:40;;;;;;;3.33;3.03;;;;;;;;;;5027784;28;20523;-58
2022/10/13 15:06:07;;;;;;;2.95;2.75;;;;;;;;;;5027168;28;20049;-57
2022/10/13 15:08:33;;;;;;;2.20;2.00;;;;;;;;;;5027669;28;20046;-58
2022/10/13 15:10:59;;;;;;;2.22;1.90;;;;;;;;;;5028235;28;20223;-58
2022/10/13 15:13:26;;;;;;;1.40;1.30;;;;;;;;;;5027256;28;20053;-57
2022/10/13 15:15:51;;;;;;;1.08;0.90;;;;;;;;;;5027782;28;20524;-58
2022/10/13 15:18:17;;;;;;;0.82;0.82;;;;;;;;;;5027539;28;20132;-58
2022/10/13 15:20:47;;;;;;;0.70;0.70;;;;;;;;;;5027341;28;20037;-58
2022/10/13 15:23:14;;;;;;;0.50;0.50;;;;;;;;;;5027299;28;20052;-58
2022/10/13 15:25:48;;;;;;;0.82;0.63;;;;;;;;;;5026608;28;20053;-58
2022/10/13 15:28:14;;;;;;;0.52;0.38;;;;;;;;;;5027244;28;20526;-58
2022/10/13 15:30:40;;;;;;;0.45;0.43;;;;;;;;;;5026380;28;20088;-58
2022/10/13 15:33:06;;;;;;;0.30;0.30;;;;;;;;;;5026734;28;20045;-58
2022/10/13 15:35:32;;;;;;;0.40;0.40;;;;;;;;;;5026752;28;20053;-58
2022/10/13 15:37:58;;;;;;;0.43;0.22;;;;;;;;;;5027772;28;20458;-58
2022/10/13 15:40:24;;;;;;;0.40;0.40;;;;;;;;;;5026097;28;20052;-58
2022/10/13 15:42:50;;;;;;;0.20;0.20;;;;;;;;;;5027238;28;20037;-58
2022/10/13 15:45:16;;;;;;;0.20;0.20;;;;;;;;;;5026866;28;20124;-57
2022/10/13 15:47:42;;;;;;;0.20;0.20;;;;;;;;;;5026370;28;20048;-58
2022/10/13 15:50:08;;;;;;;0.30;0.30;;;;;;;;;;5027097;28;20049;-58
2022/10/13 15:52:38;;;;;;;0.30;0.30;;;;;;;;;;5026629;28;20041;-58
2022/10/13 15:55:04;;;;;;;0.50;0.50;;;;;;;;;;5026947;28;20134;-58
2022/10/13 15:57:31;;;;;;;0.40;0.38;;;;;;;;;;5027551;28;20059;-58
2022/10/13 15:59:57;;;;;;;1.35;0.50;;;;;;;;;;5027729;28;20397;-58